Terminal Aerodrome Forecast
Issued by NWS Goodland, KS

Home | Current Version | Previous Version | Text Only | Print | Product List | Glossary On
Versions: 1 2 3 4 5 6 7 8 9 10 11 12 13 14 15 16 17 18 19
038
FTUS43 KGLD 261731
TAFGLD
TAF
KGLD 261731Z 2618/2718 07012G20KT P6SM BKN040
     FM262200 05015G25KT P6SM VCTS BKN025CB
     FM270300 01011KT P6SM SCT050 BKN250
     FM270900 02010KT 5SM BR BKN015
      TEMPO 2710/2714 1 1/2SM BR BKN005=

USA.gov is the U.S. government's official web portal to all federal, state and local government web resources and services.